This is the latest recevied weather packets stored in our database for station/object N2QKV-13. If no packets are shown the sender has not sent any weather packets the latest 10 day(s).
| Time | Temp. | Humidity | Pressure | Rain* | Wind** | Luminosity | Snow |
|---|---|---|---|---|---|---|---|
| 1778083204 | 18.89° C | 77% | 1009.8 hPa | 0 mm | - | - | - |
| 1778082904 | 19.44° C | 76% | 1009.9 hPa | 0 mm | - | - | - |
| 1778082604 | 20° C | 75% | 1009.8 hPa | 0 mm | - | - | - |
| 1778082304 | 20° C | 75% | 1010 hPa | 0 mm | - | - | - |
| 1778082004 | 20° C | 74% | 1009.8 hPa | 0 mm | - | - | - |
| 1778081704 | 20° C | 75% | 1009.8 hPa | 0 mm | - | - | - |
| 1778081404 | 19.44° C | 76% | 1009.8 hPa | 0 mm | - | - | - |
| 1778081103 | 19.44° C | 76% | 1009.9 hPa | 0 mm | - | - | - |
| 1778080804 | 19.44° C | 76% | 1009.8 hPa | 0 mm | - | - | - |
| 1778080504 | 20° C | 75% | 1009.9 hPa | 0 mm | - | - | - |
| 1778080204 | 20° C | 73% | 1010.1 hPa | 0 mm | - | - | - |
| 1778079904 | 20.56° C | 72% | 1010 hPa | 0 mm | - | - | - |
| 1778079603 | 21.11° C | 71% | 1009.9 hPa | 0 mm | - | - | - |
| 1778079304 | 21.11° C | 71% | 1009.9 hPa | 0 mm | - | - | - |
| 1778079004 | 21.11° C | 70% | 1009.8 hPa | 0 mm | - | - | - |
| 1778078704 | 21.67° C | 70% | 1009.8 hPa | 0 mm | - | - | - |
| 1778078404 | 21.11° C | 71% | 1009.9 hPa | 0 mm | - | - | - |
| 1778078104 | 21.11° C | 71% | 1010 hPa | 0 mm | - | - | - |
| 1778077804 | 21.11° C | 71% | 1009.9 hPa | 0 mm | - | - | - |
| 1778077504 | 21.67° C | 69% | 1009.8 hPa | 0 mm | - | - | - |
| 1778077204 | 22.22° C | 64% | 1009.8 hPa | 0 mm | - | - | - |
| 1778076904 | 22.78° C | 61% | 1009.8 hPa | 0 mm | - | - | - |
| 1778076603 | 22.78° C | 61% | 1009.8 hPa | 0 mm | - | - | - |
| 1778076304 | 22.78° C | 61% | 1009.9 hPa | 0 mm | - | - | - |
| 1778076004 | 23.33° C | 61% | 1009.8 hPa | 0 mm | - | - | - |
* Rain latest hour (hover to see other rain measurements)
** Current wind speed in m/s (hover to see current wind gust speed)